Waverly Hall, Georgia
Current Conditions -  °F | °C
As of 6:51 AM on Monday 22 Dec 2014 (Local Time) from KCSG Reporting Station
Haze Haze  
Wind Chill: 44°   Ceiling: 300
Heat Index: 47°   Visibility: 4mi
Dew Point: 47°   Wind: 7mph
Humidity: 100%   Direction: 100°E
Pressure: 30.01"   Gusts: NA
Location:  32.68°N, 84.74°W
Report Text: KCSG 221151Z AUTO 10006KT 4SM BR OVC003 08/08 A3001 RMK AO2 SLP162 T00830083 10094 20083 55000
Loading
Personal Weather Stations






























Interactive Weather Map New forecast layout! Learn more

10-Day Weather Forecast

Advertisements
Track Severe Weather on mobile